Outremont, Canada
Current Conditions -  °F | °C
As of 3:00 AM on Friday 31 Oct 2014 (Local Time) from CYUL Reporting Station
Overcast Overcast  
Wind Chill: 34°   Ceiling: 21000
Heat Index: 37°   Visibility: 15mi
Dew Point: 28°   Wind: 5mph
Humidity: 70%   Direction: 280°W
Pressure: 30.03"   Gusts: NA
Location:  45.51°N, 73.61°W
Report Text: CYUL 310700Z 28004KT 15SM FEW045 SCT150 OVC210 03/M02 A3003 RMK SC2AS2CI4 SLP169
Loading
Personal Weather Stations






























Interactive Weather Map
Tropical Storm Tracking
New forecast layout! Learn more

10-Day Weather Forecast

Advertisements
Track Severe Weather on mobile